createdAt,value
2022-10-31T00:02:09.220Z,27.88
2022-10-31T00:04:58.900Z,27.91
2022-10-31T00:07:48.359Z,27.93
2022-10-31T00:10:40.835Z,27.95
2022-10-31T00:13:30.373Z,27.98
2022-10-31T00:16:22.452Z,28.04
2022-10-31T00:19:11.638Z,28.13
2022-10-31T00:22:00.830Z,28.24
2022-10-31T00:24:49.652Z,28.30
2022-10-31T00:27:38.706Z,28.37
2022-10-31T00:30:27.797Z,28.43
2022-10-31T00:33:17.087Z,28.51
2022-10-31T00:36:08.129Z,28.55
2022-10-31T00:38:57.349Z,28.61
2022-10-31T00:41:47.049Z,28.60
2022-10-31T00:44:36.435Z,28.67
2022-10-31T00:47:28.722Z,28.64
2022-10-31T00:50:17.567Z,28.65
2022-10-31T00:53:07.503Z,28.66
2022-10-31T00:55:56.512Z,28.70
2022-10-31T00:58:45.755Z,28.73
2022-10-31T01:01:35.636Z,28.67
2022-10-31T01:04:26.494Z,28.74
2022-10-31T01:07:16.069Z,28.84
2022-10-31T01:10:08.150Z,28.88
2022-10-31T01:12:57.499Z,28.98
2022-10-31T01:15:46.396Z,29.02
2022-10-31T01:18:36.950Z,29.06
2022-10-31T01:21:28.978Z,29.08
2022-10-31T01:24:20.805Z,29.09
2022-10-31T01:27:09.775Z,29.10
2022-10-31T01:29:59.256Z,29.12
2022-10-31T01:32:48.996Z,29.12
2022-10-31T01:35:38.599Z,29.16
2022-10-31T01:38:27.742Z,29.22
2022-10-31T01:41:23.490Z,29.21
2022-10-31T01:44:18.673Z,29.38
2022-10-31T01:47:17.295Z,29.48
2022-10-31T01:50:11.915Z,29.55
2022-10-31T01:53:02.531Z,29.57
2022-10-31T01:55:52.706Z,29.64
2022-10-31T01:58:43.642Z,29.71
2022-10-31T02:01:33.442Z,29.82
2022-10-31T02:04:26.850Z,29.89
2022-10-31T02:07:33.558Z,29.94
2022-10-31T02:10:24.582Z,30.01
2022-10-31T02:13:14.957Z,30.12
2022-10-31T02:16:12.379Z,30.17
2022-10-31T02:19:01.822Z,30.13
2022-10-31T02:22:07.230Z,30.12
2022-10-31T02:25:19.177Z,30.23
2022-10-31T02:28:16.597Z,30.17
2022-10-31T02:31:21.501Z,30.17
2022-10-31T02:34:23.807Z,30.17
2022-10-31T02:37:21.011Z,30.16
2022-10-31T02:40:13.115Z,30.27
2022-10-31T02:43:33.746Z,30.29
2022-10-31T02:46:27.192Z,30.16
2022-10-31T02:49:33.531Z,30.16
2022-10-31T02:52:31.309Z,30.10
2022-10-31T02:55:25.420Z,30.09
2022-10-31T02:58:22.827Z,30.10
2022-10-31T03:01:39.645Z,30.10
2022-10-31T03:05:08.183Z,30.06
2022-10-31T03:08:22.331Z,29.98
2022-10-31T03:11:12.617Z,29.87
2022-10-31T03:14:34.974Z,29.86
2022-10-31T03:17:31.728Z,29.80
2022-10-31T03:20:25.812Z,29.82
2022-10-31T03:23:17.553Z,29.80
2022-10-31T03:26:12.603Z,29.90
2022-10-31T03:29:11.142Z,29.95
2022-10-31T03:32:09.202Z,29.96
2022-10-31T03:35:01.439Z,29.94
2022-10-31T03:37:52.337Z,29.96
2022-10-31T03:40:46.144Z,30.01
2022-10-31T03:43:40.898Z,30.01
2022-10-31T03:46:30.494Z,30.02
2022-10-31T03:49:20.638Z,30.03
2022-10-31T03:52:20.058Z,30.11
2022-10-31T03:55:12.365Z,30.17
2022-10-31T03:58:11.433Z,30.22
2022-10-31T04:01:00.504Z,30.26
2022-10-31T04:03:53.647Z,30.27
2022-10-31T04:06:45.466Z,30.22
2022-10-31T04:09:38.995Z,30.09
2022-10-31T04:12:29.709Z,30.10
2022-10-31T04:15:40.141Z,30.05
2022-10-31T04:18:29.420Z,30.08
2022-10-31T04:21:18.760Z,30.01
2022-10-31T04:24:08.411Z,30.01
2022-10-31T04:26:57.804Z,30.03
2022-10-31T04:29:50.869Z,30.00
2022-10-31T04:32:41.196Z,29.94
2022-10-31T04:35:29.784Z,29.89
2022-10-31T04:38:18.960Z,29.82
2022-10-31T04:41:08.863Z,29.82
2022-10-31T04:44:14.603Z,29.79
2022-10-31T04:47:04.596Z,29.79
2022-10-31T04:49:54.730Z,29.66
2022-10-31T04:52:44.581Z,29.67
2022-10-31T04:55:40.834Z,29.67
2022-10-31T04:58:44.363Z,29.61
2022-10-31T05:01:34.957Z,29.58
2022-10-31T05:04:24.034Z,29.54
2022-10-31T05:07:16.849Z,29.56
2022-10-31T05:10:06.139Z,29.49
2022-10-31T05:13:01.249Z,29.54
2022-10-31T05:16:08.819Z,29.54
2022-10-31T05:19:26.486Z,29.56
2022-10-31T05:22:52.568Z,29.56
2022-10-31T05:25:43.261Z,29.62
2022-10-31T05:28:32.930Z,29.64
2022-10-31T05:31:22.350Z,29.73
2022-10-31T05:34:16.557Z,29.75
2022-10-31T05:37:23.482Z,29.77
2022-10-31T05:40:14.202Z,29.78
2022-10-31T05:43:05.697Z,29.88
2022-10-31T05:45:56.224Z,29.92
2022-10-31T05:49:04.591Z,30.10
2022-10-31T05:52:12.715Z,30.14
2022-10-31T05:55:10.918Z,30.15
2022-10-31T05:58:04.646Z,30.22
2022-10-31T06:00:56.007Z,30.28
2022-10-31T06:03:46.364Z,30.44
2022-10-31T06:06:37.842Z,30.59
2022-10-31T06:09:27.226Z,30.66
2022-10-31T06:12:20.328Z,30.71
2022-10-31T06:15:41.431Z,30.73
2022-10-31T06:18:33.894Z,30.73
2022-10-31T06:21:23.116Z,30.78
2022-10-31T06:24:13.751Z,30.74
2022-10-31T06:27:25.709Z,30.73
2022-10-31T06:30:15.500Z,30.68
2022-10-31T06:33:07.506Z,30.68
2022-10-31T06:36:00.696Z,30.67
2022-10-31T06:38:50.293Z,30.66
2022-10-31T06:41:43.621Z,30.70
2022-10-31T06:44:33.484Z,30.70
2022-10-31T06:47:25.328Z,30.68
2022-10-31T06:50:28.996Z,30.66
2022-10-31T06:53:18.290Z,30.56
2022-10-31T06:56:08.738Z,30.58
2022-10-31T06:59:05.569Z,30.58
2022-10-31T07:02:27.212Z,30.52
2022-10-31T07:05:17.119Z,30.59
2022-10-31T07:08:08.538Z,30.56
2022-10-31T07:10:59.762Z,30.56
2022-10-31T07:13:51.006Z,30.59
2022-10-31T07:16:39.871Z,30.57
2022-10-31T07:19:29.695Z,30.52
2022-10-31T07:22:20.516Z,30.49
2022-10-31T07:25:10.541Z,30.45
2022-10-31T07:28:17.896Z,30.40
2022-10-31T07:31:13.485Z,30.39
2022-10-31T07:34:02.972Z,30.31
2022-10-31T07:36:57.498Z,30.33
2022-10-31T07:39:46.829Z,30.31
2022-10-31T07:42:40.656Z,30.33
2022-10-31T07:45:32.983Z,30.37
2022-10-31T07:48:48.918Z,30.38
2022-10-31T07:51:57.972Z,30.34
2022-10-31T07:55:05.311Z,30.32
2022-10-31T07:58:11.307Z,30.32
2022-10-31T08:01:03.555Z,30.29
2022-10-31T08:04:01.722Z,30.28
2022-10-31T08:07:19.930Z,30.28
2022-10-31T08:10:16.392Z,30.24
2022-10-31T08:13:07.841Z,30.25
2022-10-31T08:16:06.108Z,30.24
2022-10-31T08:19:01.557Z,30.19
2022-10-31T08:21:57.384Z,30.17
2022-10-31T08:24:50.000Z,30.13
2022-10-31T08:27:39.351Z,30.13
2022-10-31T08:30:32.449Z,30.11
2022-10-31T08:33:39.788Z,30.06
2022-10-31T08:36:58.596Z,30.03
2022-10-31T08:39:55.294Z,30.05
2022-10-31T08:42:44.499Z,30.05
2022-10-31T08:45:35.477Z,29.99
2022-10-31T08:48:25.898Z,29.98
2022-10-31T08:51:15.256Z,29.96
2022-10-31T08:54:08.475Z,29.93
2022-10-31T08:57:14.986Z,29.92
2022-10-31T09:00:07.610Z,29.90
2022-10-31T09:03:23.939Z,29.89
2022-10-31T09:06:16.011Z,29.85
2022-10-31T09:09:05.976Z,29.86
2022-10-31T09:11:56.482Z,29.85
2022-10-31T09:14:46.951Z,29.86
2022-10-31T09:17:53.558Z,29.80
2022-10-31T09:20:51.483Z,29.82
2022-10-31T09:23:40.899Z,29.81
2022-10-31T09:26:32.692Z,29.79
2022-10-31T09:29:41.843Z,29.67
2022-10-31T09:32:33.988Z,29.77
2022-10-31T09:35:25.772Z,29.80
2022-10-31T09:38:22.177Z,29.75
2022-10-31T09:41:29.802Z,29.77
2022-10-31T09:44:34.459Z,29.78
2022-10-31T09:47:55.086Z,29.77
2022-10-31T09:51:15.229Z,29.68
2022-10-31T09:54:30.313Z,29.76
2022-10-31T09:57:22.388Z,29.77
2022-10-31T10:00:24.241Z,29.77
2022-10-31T10:03:19.159Z,29.81
2022-10-31T10:06:26.355Z,29.79
2022-10-31T10:09:38.424Z,29.69
2022-10-31T10:13:14.466Z,29.62
2022-10-31T10:16:40.546Z,29.60
2022-10-31T10:19:33.860Z,29.47
2022-10-31T10:22:33.776Z,29.46
2022-10-31T10:25:49.364Z,29.39
2022-10-31T10:28:41.881Z,29.37
2022-10-31T10:31:36.399Z,29.33
2022-10-31T10:34:26.962Z,29.32
2022-10-31T10:37:38.922Z,29.28
2022-10-31T10:40:29.817Z,29.23
2022-10-31T10:43:30.213Z,29.18
2022-10-31T10:47:08.892Z,29.17
2022-10-31T10:49:57.852Z,29.11
2022-10-31T10:53:01.794Z,29.09
2022-10-31T10:56:05.217Z,29.08
2022-10-31T10:58:57.780Z,29.05
2022-10-31T11:01:50.194Z,29.03
2022-10-31T11:04:42.928Z,29.03
2022-10-31T11:07:44.850Z,29.00
2022-10-31T11:10:38.124Z,28.95
2022-10-31T11:13:28.475Z,28.94
2022-10-31T11:16:29.370Z,28.93
2022-10-31T11:19:28.571Z,28.95
2022-10-31T11:22:19.980Z,28.91
2022-10-31T11:25:25.983Z,28.90
2022-10-31T11:28:15.081Z,28.88
2022-10-31T11:31:14.041Z,28.88
2022-10-31T11:34:05.661Z,28.90
2022-10-31T11:36:54.558Z,28.89
2022-10-31T11:39:45.862Z,28.89
2022-10-31T11:42:42.964Z,28.87
2022-10-31T11:45:35.626Z,28.80
2022-10-31T11:48:26.442Z,28.77
2022-10-31T11:51:25.001Z,28.77
2022-10-31T11:54:33.794Z,28.80
2022-10-31T11:57:55.364Z,28.80
2022-10-31T12:00:55.168Z,28.71
2022-10-31T12:03:57.955Z,28.72
2022-10-31T12:06:49.326Z,28.65
2022-10-31T12:09:39.685Z,28.63
2022-10-31T12:13:04.238Z,28.65
2022-10-31T12:15:58.593Z,28.69
2022-10-31T12:19:00.242Z,28.70
2022-10-31T12:22:27.538Z,28.72
2022-10-31T12:25:43.572Z,28.73
2022-10-31T12:29:04.559Z,28.70
2022-10-31T12:32:08.608Z,28.72
2022-10-31T12:35:27.999Z,28.73
2022-10-31T12:38:23.332Z,28.71
2022-10-31T12:41:34.423Z,28.72
2022-10-31T12:44:27.041Z,28.74
2022-10-31T12:47:43.934Z,28.74
2022-10-31T12:50:55.029Z,28.74
2022-10-31T12:54:27.111Z,28.80
2022-10-31T12:57:30.714Z,28.77
2022-10-31T13:00:23.268Z,28.75
2022-10-31T13:03:43.857Z,28.79
2022-10-31T13:06:44.620Z,28.66
2022-10-31T13:09:45.433Z,28.85
2022-10-31T13:12:37.433Z,28.86
2022-10-31T13:15:31.180Z,28.84
2022-10-31T13:18:30.528Z,28.88
2022-10-31T13:22:00.283Z,28.92
2022-10-31T13:25:01.692Z,28.91
2022-10-31T13:28:16.105Z,28.92
2022-10-31T13:31:06.786Z,28.85
2022-10-31T13:34:00.765Z,28.90
2022-10-31T13:37:16.533Z,28.91
2022-10-31T13:40:15.802Z,28.89
2022-10-31T13:43:23.432Z,28.87
2022-10-31T13:49:32.870Z,28.83
2022-10-31T13:52:27.064Z,28.86
2022-10-31T13:55:38.157Z,28.84
2022-10-31T13:58:32.039Z,28.79
2022-10-31T14:01:25.659Z,28.79
2022-10-31T14:04:49.496Z,28.79
2022-10-31T14:07:45.895Z,28.80
2022-10-31T14:10:50.000Z,28.78
2022-10-31T14:13:44.953Z,28.79
2022-10-31T14:16:39.945Z,28.74
2022-10-31T14:19:29.032Z,28.71
2022-10-31T14:22:23.905Z,28.72
2022-10-31T14:25:33.290Z,28.74
2022-10-31T14:28:33.663Z,28.64
2022-10-31T14:31:42.537Z,28.65
2022-10-31T14:34:37.038Z,28.65
2022-10-31T14:37:45.142Z,28.63
2022-10-31T14:40:55.416Z,28.67
2022-10-31T14:44:05.070Z,28.59
2022-10-31T14:47:22.800Z,28.64
2022-10-31T14:50:39.022Z,28.65
2022-10-31T14:53:37.812Z,28.62
2022-10-31T14:56:37.192Z,28.61
2022-10-31T14:59:32.980Z,28.63
2022-10-31T15:02:39.760Z,28.54
2022-10-31T15:05:29.843Z,28.62
2022-10-31T15:08:44.800Z,28.66
2022-10-31T15:11:40.155Z,28.64
2022-10-31T15:14:31.373Z,28.59
2022-10-31T15:17:21.219Z,28.59
2022-10-31T15:20:12.958Z,28.58
2022-10-31T15:23:02.372Z,28.59
2022-10-31T15:25:51.702Z,28.59
2022-10-31T15:28:41.039Z,28.59
2022-10-31T15:31:31.355Z,28.59
2022-10-31T15:34:43.307Z,28.64
2022-10-31T15:37:34.737Z,28.59
2022-10-31T15:40:25.898Z,28.60
2022-10-31T15:43:19.345Z,28.60
2022-10-31T15:46:10.690Z,28.58
2022-10-31T15:48:59.978Z,28.52
2022-10-31T15:51:54.076Z,28.52
2022-10-31T15:54:51.348Z,28.47
2022-10-31T15:57:49.163Z,28.49
2022-10-31T16:00:40.304Z,28.47
2022-10-31T16:03:32.104Z,28.41
2022-10-31T16:06:25.730Z,28.41
2022-10-31T16:09:26.134Z,28.45
2022-10-31T16:12:19.990Z,28.42
2022-10-31T16:15:19.515Z,28.45
2022-10-31T16:18:08.205Z,28.45
2022-10-31T16:20:58.811Z,28.45
2022-10-31T16:23:49.100Z,28.48
2022-10-31T16:26:37.924Z,28.48
2022-10-31T16:29:44.842Z,28.50
2022-10-31T16:32:36.118Z,28.50
2022-10-31T16:35:48.094Z,28.44
2022-10-31T16:38:37.619Z,28.44
2022-10-31T16:41:27.794Z,28.45
2022-10-31T16:44:24.211Z,28.47
2022-10-31T16:47:18.183Z,28.45
2022-10-31T16:50:13.474Z,28.45
2022-10-31T16:53:13.855Z,28.43
2022-10-31T16:56:05.489Z,28.44
2022-10-31T16:58:54.495Z,28.43
2022-10-31T17:01:47.445Z,28.44
2022-10-31T17:07:30.017Z,28.41
2022-10-31T17:10:21.415Z,28.44
2022-10-31T17:13:37.180Z,28.44
2022-10-31T17:16:29.295Z,28.42
2022-10-31T17:19:19.164Z,28.41
2022-10-31T17:22:08.457Z,28.40
2022-10-31T17:24:58.054Z,28.38
2022-10-31T17:27:47.569Z,28.38
2022-10-31T17:30:40.361Z,28.38
2022-10-31T17:33:49.771Z,28.37
2022-10-31T17:36:38.751Z,28.37
2022-10-31T17:39:37.117Z,28.36
2022-10-31T17:42:26.589Z,28.37
2022-10-31T17:45:15.429Z,28.38
2022-10-31T17:48:05.000Z,28.37
2022-10-31T17:50:54.066Z,28.34
2022-10-31T17:53:44.578Z,28.28
2022-10-31T17:56:33.419Z,28.24
2022-10-31T17:59:22.452Z,28.18
2022-10-31T18:02:15.047Z,28.14
2022-10-31T18:05:07.791Z,28.10
2022-10-31T18:08:00.870Z,28.10
2022-10-31T18:10:52.933Z,28.08
2022-10-31T18:13:41.939Z,28.06
2022-10-31T18:16:31.061Z,28.04
2022-10-31T18:19:20.029Z,28.01
2022-10-31T18:22:09.289Z,27.99
2022-10-31T18:25:01.892Z,27.98
2022-10-31T18:27:51.574Z,27.96
2022-10-31T18:30:42.073Z,27.95
2022-10-31T18:33:31.643Z,27.93
2022-10-31T18:36:20.838Z,27.90
2022-10-31T18:39:09.933Z,27.92
2022-10-31T18:41:59.465Z,27.90
2022-10-31T18:44:49.187Z,27.89
2022-10-31T18:47:41.151Z,27.89
2022-10-31T18:50:30.224Z,27.89
2022-10-31T18:53:23.527Z,27.88
2022-10-31T18:56:12.926Z,27.86
2022-10-31T18:59:05.717Z,27.85
2022-10-31T19:01:55.610Z,27.82
2022-10-31T19:04:44.668Z,27.82
2022-10-31T19:07:36.925Z,27.82
2022-10-31T19:10:26.321Z,27.82
2022-10-31T19:13:16.604Z,27.81
2022-10-31T19:16:11.653Z,27.81
2022-10-31T19:19:01.020Z,27.81
2022-10-31T19:21:49.927Z,27.77
2022-10-31T19:24:39.457Z,27.77
2022-10-31T19:27:29.066Z,27.77
2022-10-31T19:30:18.201Z,27.76
2022-10-31T19:33:06.648Z,27.74
2022-10-31T19:36:16.131Z,27.75
2022-10-31T19:39:05.421Z,27.76
2022-10-31T19:41:55.077Z,27.75
2022-10-31T19:44:44.159Z,27.75
2022-10-31T19:47:33.258Z,27.73
2022-10-31T19:50:23.129Z,27.73
2022-10-31T19:53:11.985Z,27.73
2022-10-31T19:56:01.718Z,27.70
2022-10-31T19:58:51.256Z,27.71
2022-10-31T20:01:40.850Z,27.73
2022-10-31T20:04:30.165Z,27.73
2022-10-31T20:07:19.348Z,27.71
2022-10-31T20:10:09.603Z,27.69
2022-10-31T20:12:58.727Z,27.70
2022-10-31T20:15:48.300Z,27.69
2022-10-31T20:18:41.222Z,27.73
2022-10-31T20:21:33.064Z,27.70
2022-10-31T20:24:22.722Z,27.67
2022-10-31T20:27:12.419Z,27.73
2022-10-31T20:30:01.764Z,27.73
2022-10-31T20:32:50.723Z,27.65
2022-10-31T20:35:42.956Z,27.72
2022-10-31T20:38:31.507Z,27.68
2022-10-31T20:41:21.191Z,27.66
2022-10-31T20:44:09.919Z,27.68
2022-10-31T20:46:58.928Z,27.68
2022-10-31T20:49:48.244Z,27.71
2022-10-31T20:52:39.390Z,27.71
2022-10-31T20:55:28.580Z,27.72
2022-10-31T20:58:17.693Z,27.70
2022-10-31T21:01:13.144Z,27.67
2022-10-31T21:04:02.315Z,27.67
2022-10-31T21:06:51.474Z,27.71
2022-10-31T21:09:40.931Z,27.70
2022-10-31T21:12:30.451Z,27.66
2022-10-31T21:15:24.298Z,27.67
2022-10-31T21:18:13.845Z,27.65
2022-10-31T21:21:03.739Z,27.64
2022-10-31T21:24:01.530Z,27.64
2022-10-31T21:26:52.995Z,27.62
2022-10-31T21:29:43.284Z,27.64
2022-10-31T21:32:32.366Z,27.62
2022-10-31T21:35:21.381Z,27.60
2022-10-31T21:38:11.327Z,27.59
2022-10-31T21:41:04.825Z,27.60
2022-10-31T21:43:56.864Z,27.58
2022-10-31T21:46:48.273Z,27.60
2022-10-31T21:49:37.380Z,27.61
2022-10-31T21:52:26.404Z,27.61
2022-10-31T21:55:15.630Z,27.59
2022-10-31T21:58:04.572Z,27.60
2022-10-31T22:00:55.142Z,27.59
2022-10-31T22:03:46.813Z,27.63
2022-10-31T22:06:36.644Z,27.62
2022-10-31T22:09:25.389Z,27.61
2022-10-31T22:12:16.631Z,27.62
2022-10-31T22:15:06.042Z,27.62
2022-10-31T22:17:57.587Z,27.63
2022-10-31T22:20:46.625Z,27.63
2022-10-31T22:23:36.234Z,27.61
2022-10-31T22:26:30.354Z,27.63
2022-10-31T22:29:21.332Z,27.62
2022-10-31T22:32:10.798Z,27.62
2022-10-31T22:34:59.749Z,27.63
2022-10-31T22:37:48.891Z,27.66
2022-10-31T22:40:38.884Z,27.65
2022-10-31T22:43:28.795Z,27.67
2022-10-31T22:46:21.204Z,27.71
2022-10-31T22:49:15.462Z,27.70
2022-10-31T22:52:06.379Z,27.70
2022-10-31T22:54:58.397Z,27.69
2022-10-31T22:57:48.302Z,27.72
2022-10-31T23:00:37.849Z,27.71
2022-10-31T23:03:29.970Z,27.75
2022-10-31T23:06:24.756Z,27.76
2022-10-31T23:09:16.522Z,27.73
2022-10-31T23:12:23.473Z,27.73
2022-10-31T23:15:12.794Z,27.74
2022-10-31T23:18:18.845Z,27.75
2022-10-31T23:21:38.846Z,27.75
2022-10-31T23:24:29.791Z,27.71
2022-10-31T23:27:24.414Z,27.68
2022-10-31T23:30:13.735Z,27.73
2022-10-31T23:33:05.660Z,27.75
2022-10-31T23:35:54.696Z,27.78
2022-10-31T23:38:43.777Z,27.77
2022-10-31T23:41:32.710Z,27.80
2022-10-31T23:44:22.178Z,27.84
2022-10-31T23:47:11.276Z,27.82
2022-10-31T23:50:00.451Z,27.85
2022-10-31T23:52:49.895Z,27.82
2022-10-31T23:55:39.448Z,27.84
2022-10-31T23:58:28.339Z,27.85
